Main page
METAR-TAF:

METAR-TAF

Airports :

Ayatollah Hashemi Rafsanjani Airport

Kerman, Iran

latitude: 30-15N, longitude: 056-58E, elevation: 1748 m

Current weather observation

The report was made 1 hour and 0 minutes ago, at 20:00 UTC
Wind 6 kt from the North/Northwest
Temperature 27°C
Humidity 26%
Pressure 1013 hPa
Visibility: 6000 m

METAR: OIKK 052000Z 34006KT 6000 NSC 27/06 Q1012 A2990

Time: 01:30 (21:00 UTC)

Forecast

The report was made 3 hours and 30 minutes ago, at 17:30 UTC
Forecast valid from 05 at 18 UTC to 06 at 24 UTC
Wind 8 kt from the Northwest
Visibility: 6000 m
Temporary
from 06 at 09 UTC to 06 at 18 UTC
Wind 16 kt from the Northeast
Visibility: 4000 m
Few clouds at a height of 4000 ft

TAF: OIKK 051730Z 0518/0624 32008KT 6000 NSC TEMPO 0609/0618 05016KT 4000 DU/SA FEW040

Weather observations and forecasts of more than 4000 airports (METAR and TAF reports).

The available stations are represented by yellow and red dots on the map.

Hover mouse over dot to see the name of the station.

Then click to see weather observations and forecasts.

To change the map : click on the green buttons with a black cross to zoom in, on the green button with a dash to zoom out, or on the green arrows for adjacent maps.


METAR-TAF: